Open Full Screen Window  High Contrast Mode
Wind Gusting 00 knots
04
August 28, 2016 2:50 PM EDT
Weather Information
Wind Direction
  320 °
Wind Speed
  04 kt (5 mph)
Wind Gust
  00 kt (0 mph)
Altimeter
30.19 in
Visibility
10 SM
Temperature
26° C
79° F
Dewpoint
18° C
64° F
Humidity
61%
1hr Rain Fall
00.00 in.
24hr Rain Fall
00.01 in.
Sky Condition
Clear
VFR

METAR KIKW 281850Z AUTO 32004KT 10SM CLR 26/18 A3019 RMK AO2 T02550177

*Background is not an actual portrayal of the airport.